Time;durP1;ratioP1;P1;durP2;ratioP2;P2;SDS_P1;SDS_P2;PMS_P1;PMS_P2;Temp;Humidity;BMP_temperature;BMP_pressure;BME280_temperature;BME280_humidity;BME280_pressure;Samples;Min_cycle;Max_cycle;Signal;HPM_P1;HPM_P2
2024/03/30 00:00:05;;;;;;;21.90;9.70;;;;;;;7.19;92.05;98078.53;271610;1269;22303;-88
2024/03/30 00:06:33;;;;;;;23.60;12.20;;;;;;;7.10;92.40;98076.73;272594;1267;22235;-88
2024/03/30 00:20:22;;;;;;;25.20;12.00;;;;;;;7.02;93.52;98082.02;271979;1268;22283;-88
2024/03/30 00:26:50;;;;;;;23.60;10.30;;;;;;;6.95;93.84;98081.39;273582;1267;22112;-87
2024/03/30 00:32:53;;;;;;;22.10;9.30;;;;;;;6.89;94.18;98076.36;271721;1269;22564;-88
2024/03/30 00:39:45;;;;;;;22.40;9.00;;;;;;;6.79;94.36;98072.52;272625;1273;22279;-88
2024/03/30 00:45:46;;;;;;;17.60;7.90;;;;;;;6.64;94.66;98067.74;271322;1269;22544;-88
2024/03/30 00:51:56;;;;;;;17.00;8.30;;;;;;;6.57;94.44;98062.77;270532;1269;22410;-88
2024/03/30 00:58:48;;;;;;;17.20;9.00;;;;;;;6.52;95.17;98062.56;272288;1271;23455;-88
2024/03/30 01:05:53;;;;;;;15.50;7.70;;;;;;;6.42;95.54;98061.74;273890;1275;22915;-88
2024/03/30 01:12:10;;;;;;;15.60;6.70;;;;;;;6.29;96.24;98053.82;273765;1275;22446;-87
2024/03/30 01:18:47;;;;;;;11.00;6.60;;;;;;;6.16;95.78;98056.05;273795;1272;22254;-86
2024/03/30 01:25:51;;;;;;;13.80;7.00;;;;;;;6.07;96.45;98060.05;273914;1275;22399;-87
2024/03/30 01:40:35;;;;;;;17.90;6.80;;;;;;;5.89;96.85;98058.30;273911;1276;23095;-87
2024/03/30 01:54:56;;;;;;;17.50;6.60;;;;;;;5.94;98.41;98055.59;273986;1275;22294;-87
2024/03/30 02:01:04;;;;;;;13.00;6.40;;;;;;;5.89;98.36;98055.13;273730;1253;23064;-86
2024/03/30 02:07:07;;;;;;;12.60;6.00;;;;;;;5.83;98.41;98055.80;272685;1270;22420;-88
2024/03/30 02:20:28;;;;;;;12.70;5.90;;;;;;;5.72;99.05;98066.09;273347;1272;23796;-88
2024/03/30 02:27:39;;;;;;;19.20;7.00;;;;;;;5.66;99.18;98063.06;273430;1270;23255;-87
2024/03/30 02:48:55;;;;;;;16.20;7.50;;;;;;;5.33;99.45;98064.45;272887;1272;22963;-87
2024/03/30 02:55:52;;;;;;;12.70;6.60;;;;;;;5.29;99.62;98072.23;273178;1272;22249;-87
2024/03/30 03:02:45;;;;;;;15.70;7.20;;;;;;;5.19;99.64;98078.10;273520;1269;23690;-87
2024/03/30 03:09:13;;;;;;;15.80;7.40;;;;;;;5.16;100.00;98084.80;273592;1276;22978;-87
2024/03/30 03:15:15;;;;;;;20.00;10.10;;;;;;;5.15;100.00;98090.04;272934;1263;22468;-87
2024/03/30 03:21:17;;;;;;;20.50;8.10;;;;;;;5.10;100.00;98088.95;272734;1269;22458;-88
2024/03/30 03:27:19;;;;;;;19.20;9.40;;;;;;;5.07;100.00;98082.45;270739;1269;25365;-87
2024/03/30 03:34:15;;;;;;;21.60;13.40;;;;;;;5.02;100.00;98073.84;271171;1269;23667;-86
2024/03/30 03:40:42;;;;;;;26.80;15.00;;;;;;;5.03;100.00;98074.25;271387;1269;23037;-87
2024/03/30 03:46:59;;;;;;;;;;;;;;;5.05;100.00;98071.88;273652;1258;23596;-88
2024/03/30 03:53:00;;;;;;;16.90;9.20;;;;;;;5.02;100.00;98069.73;272274;1269;22508;-88
2024/03/30 03:59:15;;;;;;;18.20;10.00;;;;;;;4.95;100.00;98072.31;271491;1269;22588;-88
2024/03/30 04:05:17;;;;;;;16.20;8.90;;;;;;;4.85;100.00;98080.82;272602;1269;22271;-88
2024/03/30 04:11:18;;;;;;;17.00;10.10;;;;;;;4.79;100.00;98088.14;272123;1269;23643;-88
2024/03/30 04:17:21;;;;;;;17.10;8.40;;;;;;;4.76;100.00;98087.55;272685;1260;22553;-88
2024/03/30 04:23:22;;;;;;;16.30;6.80;;;;;;;4.65;100.00;98085.46;272411;1269;22521;-88
2024/03/30 04:29:24;;;;;;;17.40;7.90;;;;;;;4.55;100.00;98097.56;272832;1269;22889;-88
2024/03/30 04:35:27;;;;;;;18.70;7.30;;;;;;;4.55;100.00;98105.48;272630;1269;22565;-88
2024/03/30 04:41:28;;;;;;;12.70;7.40;;;;;;;4.54;100.00;98106.30;272728;1269;22411;-88
2024/03/30 04:47:30;;;;;;;19.10;7.90;;;;;;;4.53;100.00;98101.80;271233;1265;23024;-87
2024/03/30 04:53:34;;;;;;;18.90;8.20;;;;;;;4.53;100.00;98101.17;272499;1269;23382;-88
2024/03/30 04:59:36;;;;;;;11.80;6.90;;;;;;;4.60;100.00;98099.90;269964;1269;25269;-87
2024/03/30 05:05:39;;;;;;;14.60;7.20;;;;;;;4.66;100.00;98099.42;270559;1269;23285;-87
2024/03/30 05:11:41;;;;;;;15.00;7.60;;;;;;;4.77;100.00;98100.33;269968;1269;22556;-87
2024/03/30 05:17:43;;;;;;;21.60;8.70;;;;;;;4.97;100.00;98090.64;270738;1269;22451;-87
2024/03/30 05:23:45;;;;;;;16.80;9.50;;;;;;;5.22;100.00;98090.08;270730;1269;23474;-87
2024/03/30 05:29:47;;;;;;;22.30;9.90;;;;;;;5.51;100.00;98094.15;271580;1253;22450;-88
2024/03/30 05:35:51;;;;;;;22.00;9.50;;;;;;;5.91;100.00;98091.47;272713;1269;24543;-87
2024/03/30 05:41:52;;;;;;;14.20;9.00;;;;;;;6.38;100.00;98093.67;272673;1269;22351;-87
2024/03/30 05:47:54;;;;;;;20.10;10.20;;;;;;;6.90;100.00;98094.63;271131;1269;22684;-88
2024/03/30 05:53:56;;;;;;;25.00;10.10;;;;;;;7.52;100.00;98101.85;271139;1269;22776;-87
2024/03/30 05:59:58;;;;;;;27.40;10.70;;;;;;;8.22;100.00;98104.20;270328;1269;22468;-88
2024/03/30 06:06:00;;;;;;;27.20;11.60;;;;;;;8.75;100.00;98100.73;270753;1269;22844;-88
2024/03/30 06:12:02;;;;;;;25.60;10.90;;;;;;;9.17;100.00;98099.94;272817;1269;22406;-87
2024/03/30 06:18:05;;;;;;;31.90;9.70;;;;;;;9.62;100.00;98101.95;272738;1263;23484;-89
2024/03/30 06:24:07;;;;;;;20.70;8.20;;;;;;;10.10;100.00;98101.71;272761;1269;22654;-90
2024/03/30 06:30:11;;;;;;;25.70;7.40;;;;;;;10.65;100.00;98092.45;272742;1269;22349;-87
2024/03/30 06:36:12;;;;;;;27.50;8.60;;;;;;;11.26;100.00;98099.66;272454;1269;22352;-89
2024/03/30 06:48:56;;;;;;;20.00;6.80;;;;;;;12.54;100.00;98085.51;272309;1269;22296;-90
2024/03/30 06:54:58;;;;;;;20.10;6.20;;;;;;;13.04;100.00;98086.27;272697;1254;22588;-88
2024/03/30 07:01:50;;;;;;;18.80;5.90;;;;;;;13.51;100.00;98091.81;273208;1269;22325;-88
